sensor_id;sensor_type;location;lat;lon;timestamp;P1;durP1;ratioP1;P2;durP2;ratioP2
35606;SDS011;21729;58.392;15.656;2024-02-26T00:00:21;5.32;;;3.20;;
35606;SDS011;21729;58.392;15.656;2024-02-26T00:02:50;4.60;;;3.35;;
35606;SDS011;21729;58.392;15.656;2024-02-26T00:05:17;5.10;;;3.77;;
35606;SDS011;21729;58.392;15.656;2024-02-26T00:07:44;4.40;;;3.63;;
35606;SDS011;21729;58.392;15.656;2024-02-26T00:10:12;5.25;;;3.85;;
35606;SDS011;21729;58.392;15.656;2024-02-26T00:12:40;5.30;;;3.60;;
35606;SDS011;21729;58.392;15.656;2024-02-26T00:15:07;6.13;;;3.70;;
35606;SDS011;21729;58.392;15.656;2024-02-26T00:17:35;5.80;;;3.97;;
35606;SDS011;21729;58.392;15.656;2024-02-26T00:20:04;4.50;;;3.60;;
35606;SDS011;21729;58.392;15.656;2024-02-26T00:22:33;4.83;;;3.80;;
35606;SDS011;21729;58.392;15.656;2024-02-26T00:25:01;5.07;;;3.58;;
35606;SDS011;21729;58.392;15.656;2024-02-26T00:27:28;4.97;;;3.60;;
35606;SDS011;21729;58.392;15.656;2024-02-26T00:29:55;4.43;;;3.60;;
35606;SDS011;21729;58.392;15.656;2024-02-26T00:32:22;5.18;;;3.78;;
35606;SDS011;21729;58.392;15.656;2024-02-26T00:34:49;5.28;;;4.10;;
35606;SDS011;21729;58.392;15.656;2024-02-26T00:37:18;4.55;;;3.53;;
35606;SDS011;21729;58.392;15.656;2024-02-26T00:39:45;5.68;;;4.07;;
35606;SDS011;21729;58.392;15.656;2024-02-26T00:42:12;4.55;;;3.80;;
35606;SDS011;21729;58.392;15.656;2024-02-26T00:44:39;4.97;;;4.03;;
35606;SDS011;21729;58.392;15.656;2024-02-26T00:47:06;5.63;;;3.95;;
35606;SDS011;21729;58.392;15.656;2024-02-26T00:49:33;5.55;;;4.28;;
35606;SDS011;21729;58.392;15.656;2024-02-26T00:52:00;6.43;;;4.10;;
35606;SDS011;21729;58.392;15.656;2024-02-26T00:54:29;4.30;;;3.85;;
35606;SDS011;21729;58.392;15.656;2024-02-26T00:56:56;4.78;;;3.90;;
35606;SDS011;21729;58.392;15.656;2024-02-26T00:59:23;6.40;;;4.20;;
35606;SDS011;21729;58.392;15.656;2024-02-26T01:01:50;7.07;;;4.77;;
35606;SDS011;21729;58.392;15.656;2024-02-26T01:04:17;6.13;;;4.25;;
35606;SDS011;21729;58.392;15.656;2024-02-26T01:06:44;5.93;;;4.00;;
35606;SDS011;21729;58.392;15.656;2024-02-26T01:09:11;6.43;;;4.10;;
35606;SDS011;21729;58.392;15.656;2024-02-26T01:11:40;5.93;;;4.57;;
35606;SDS011;21729;58.392;15.656;2024-02-26T01:14:07;6.18;;;4.28;;
35606;SDS011;21729;58.392;15.656;2024-02-26T01:16:34;7.57;;;4.80;;
35606;SDS011;21729;58.392;15.656;2024-02-26T01:19:01;6.35;;;4.70;;
35606;SDS011;21729;58.392;15.656;2024-02-26T01:21:28;7.25;;;4.57;;
35606;SDS011;21729;58.392;15.656;2024-02-26T01:23:55;6.75;;;4.90;;
35606;SDS011;21729;58.392;15.656;2024-02-26T01:26:22;7.18;;;4.72;;
35606;SDS011;21729;58.392;15.656;2024-02-26T01:28:50;7.40;;;5.10;;
35606;SDS011;21729;58.392;15.656;2024-02-26T01:31:18;6.07;;;4.78;;
35606;SDS011;21729;58.392;15.656;2024-02-26T01:33:45;6.45;;;5.20;;
35606;SDS011;21729;58.392;15.656;2024-02-26T01:36:12;7.20;;;5.53;;
35606;SDS011;21729;58.392;15.656;2024-02-26T01:38:39;8.37;;;5.83;;
35606;SDS011;21729;58.392;15.656;2024-02-26T01:41:06;7.33;;;5.60;;
35606;SDS011;21729;58.392;15.656;2024-02-26T01:43:33;7.07;;;5.93;;
35606;SDS011;21729;58.392;15.656;2024-02-26T01:46:02;8.75;;;6.28;;
35606;SDS011;21729;58.392;15.656;2024-02-26T01:48:30;9.30;;;6.50;;
35606;SDS011;21729;58.392;15.656;2024-02-26T01:50:57;7.68;;;6.43;;
35606;SDS011;21729;58.392;15.656;2024-02-26T01:53:24;8.10;;;6.68;;
35606;SDS011;21729;58.392;15.656;2024-02-26T01:55:51;9.98;;;7.03;;
35606;SDS011;21729;58.392;15.656;2024-02-26T01:58:18;10.17;;;7.67;;
35606;SDS011;21729;58.392;15.656;2024-02-26T02:00:46;10.35;;;7.43;;
35606;SDS011;21729;58.392;15.656;2024-02-26T02:03:15;10.40;;;7.30;;
35606;SDS011;21729;58.392;15.656;2024-02-26T02:05:44;10.25;;;7.65;;
35606;SDS011;21729;58.392;15.656;2024-02-26T02:08:12;13.35;;;8.80;;
35606;SDS011;21729;58.392;15.656;2024-02-26T02:10:41;12.32;;;9.57;;
35606;SDS011;21729;58.392;15.656;2024-02-26T02:13:08;12.20;;;8.77;;
35606;SDS011;21729;58.392;15.656;2024-02-26T02:15:35;12.63;;;9.05;;
35606;SDS011;21729;58.392;15.656;2024-02-26T02:18:02;13.13;;;9.30;;
35606;SDS011;21729;58.392;15.656;2024-02-26T02:20:32;13.55;;;9.55;;
35606;SDS011;21729;58.392;15.656;2024-02-26T02:23:00;13.93;;;10.02;;
35606;SDS011;21729;58.392;15.656;2024-02-26T02:25:27;13.05;;;10.00;;
35606;SDS011;21729;58.392;15.656;2024-02-26T02:27:55;14.05;;;10.00;;
35606;SDS011;21729;58.392;15.656;2024-02-26T02:30:23;15.45;;;10.73;;
35606;SDS011;21729;58.392;15.656;2024-02-26T02:32:52;15.95;;;11.00;;
35606;SDS011;21729;58.392;15.656;2024-02-26T02:35:21;15.10;;;10.48;;
35606;SDS011;21729;58.392;15.656;2024-02-26T02:37:49;13.55;;;10.40;;
35606;SDS011;21729;58.392;15.656;2024-02-26T02:40:17;14.90;;;10.50;;
35606;SDS011;21729;58.392;15.656;2024-02-26T02:42:44;15.27;;;10.25;;
35606;SDS011;21729;58.392;15.656;2024-02-26T02:45:11;15.02;;;10.80;;
35606;SDS011;21729;58.392;15.656;2024-02-26T02:47:38;18.80;;;11.20;;
35606;SDS011;21729;58.392;15.656;2024-02-26T02:50:05;18.25;;;11.45;;
35606;SDS011;21729;58.392;15.656;2024-02-26T02:52:33;16.65;;;11.02;;
35606;SDS011;21729;58.392;15.656;2024-02-26T02:55:01;19.95;;;10.88;;
35606;SDS011;21729;58.392;15.656;2024-02-26T02:57:29;18.50;;;11.00;;
35606;SDS011;21729;58.392;15.656;2024-02-26T02:59:57;18.13;;;11.23;;
35606;SDS011;21729;58.392;15.656;2024-02-26T03:02:24;21.88;;;11.82;;
35606;SDS011;21729;58.392;15.656;2024-02-26T03:04:51;22.88;;;12.10;;
35606;SDS011;21729;58.392;15.656;2024-02-26T03:07:18;22.23;;;10.95;;
35606;SDS011;21729;58.392;15.656;2024-02-26T03:09:45;27.58;;;10.80;;
35606;SDS011;21729;58.392;15.656;2024-02-26T03:12:17;23.73;;;11.88;;
35606;SDS011;21729;58.392;15.656;2024-02-26T03:14:44;28.00;;;11.98;;
35606;SDS011;21729;58.392;15.656;2024-02-26T03:17:11;28.27;;;11.82;;
35606;SDS011;21729;58.392;15.656;2024-02-26T03:19:38;28.98;;;11.48;;
35606;SDS011;21729;58.392;15.656;2024-02-26T03:22:05;34.72;;;12.20;;
35606;SDS011;21729;58.392;15.656;2024-02-26T03:24:32;30.13;;;11.48;;
35606;SDS011;21729;58.392;15.656;2024-02-26T03:26:59;29.48;;;12.20;;
35606;SDS011;21729;58.392;15.656;2024-02-26T03:29:27;26.95;;;12.05;;
35606;SDS011;21729;58.392;15.656;2024-02-26T03:31:54;27.87;;;11.07;;
35606;SDS011;21729;58.392;15.656;2024-02-26T03:34:21;26.20;;;11.57;;
35606;SDS011;21729;58.392;15.656;2024-02-26T03:36:49;31.37;;;11.63;;
35606;SDS011;21729;58.392;15.656;2024-02-26T03:39:16;31.13;;;11.95;;
35606;SDS011;21729;58.392;15.656;2024-02-26T03:41:43;33.78;;;11.88;;
35606;SDS011;21729;58.392;15.656;2024-02-26T03:44:10;29.67;;;11.00;;
35606;SDS011;21729;58.392;15.656;2024-02-26T03:46:38;25.98;;;10.38;;
35606;SDS011;21729;58.392;15.656;2024-02-26T03:49:07;24.45;;;10.40;;
35606;SDS011;21729;58.392;15.656;2024-02-26T03:51:34;22.83;;;9.70;;
35606;SDS011;21729;58.392;15.656;2024-02-26T03:54:02;18.20;;;9.80;;
35606;SDS011;21729;58.392;15.656;2024-02-26T03:56:29;20.45;;;9.55;;
35606;SDS011;21729;58.392;15.656;2024-02-26T03:58:56;20.73;;;10.00;;
35606;SDS011;21729;58.392;15.656;2024-02-26T04:01:24;19.05;;;9.32;;
35606;SDS011;21729;58.392;15.656;2024-02-26T04:03:53;17.00;;;8.80;;
35606;SDS011;21729;58.392;15.656;2024-02-26T04:06:20;17.05;;;8.68;;
35606;SDS011;21729;58.392;15.656;2024-02-26T04:08:47;15.95;;;8.80;;
35606;SDS011;21729;58.392;15.656;2024-02-26T04:11:15;13.95;;;8.30;;
35606;SDS011;21729;58.392;15.656;2024-02-26T04:13:44;12.55;;;8.20;;
35606;SDS011;21729;58.392;15.656;2024-02-26T04:16:14;12.70;;;8.00;;
35606;SDS011;21729;58.392;15.656;2024-02-26T04:18:41;11.65;;;7.55;;
35606;SDS011;21729;58.392;15.656;2024-02-26T04:21:10;12.13;;;8.45;;
35606;SDS011;21729;58.392;15.656;2024-02-26T04:23:37;12.00;;;7.93;;
35606;SDS011;21729;58.392;15.656;2024-02-26T04:26:04;10.57;;;7.83;;
35606;SDS011;21729;58.392;15.656;2024-02-26T04:28:31;13.45;;;8.50;;
35606;SDS011;21729;58.392;15.656;2024-02-26T04:30:58;10.27;;;7.50;;
35606;SDS011;21729;58.392;15.656;2024-02-26T04:33:25;10.50;;;7.63;;
35606;SDS011;21729;58.392;15.656;2024-02-26T04:35:52;11.43;;;7.85;;
35606;SDS011;21729;58.392;15.656;2024-02-26T04:38:21;11.35;;;8.00;;
35606;SDS011;21729;58.392;15.656;2024-02-26T04:40:48;11.82;;;7.90;;
35606;SDS011;21729;58.392;15.656;2024-02-26T04:43:15;11.77;;;7.80;;
35606;SDS011;21729;58.392;15.656;2024-02-26T04:45:43;10.40;;;7.30;;
35606;SDS011;21729;58.392;15.656;2024-02-26T04:48:10;11.60;;;7.87;;
35606;SDS011;21729;58.392;15.656;2024-02-26T04:50:37;10.20;;;7.37;;
35606;SDS011;21729;58.392;15.656;2024-02-26T04:53:04;11.40;;;8.60;;
35606;SDS011;21729;58.392;15.656;2024-02-26T04:55:33;12.30;;;8.10;;
35606;SDS011;21729;58.392;15.656;2024-02-26T04:58:00;10.80;;;7.68;;
35606;SDS011;21729;58.392;15.656;2024-02-26T05:00:27;13.25;;;8.77;;
35606;SDS011;21729;58.392;15.656;2024-02-26T05:02:54;12.38;;;9.20;;
35606;SDS011;21729;58.392;15.656;2024-02-26T05:05:21;12.60;;;8.57;;
35606;SDS011;21729;58.392;15.656;2024-02-26T05:07:48;14.10;;;9.18;;
35606;SDS011;21729;58.392;15.656;2024-02-26T05:10:15;11.93;;;8.52;;
35606;SDS011;21729;58.392;15.656;2024-02-26T05:12:43;12.38;;;8.13;;
35606;SDS011;21729;58.392;15.656;2024-02-26T05:15:10;11.10;;;8.35;;
35606;SDS011;21729;58.392;15.656;2024-02-26T05:17:43;11.77;;;8.50;;
35606;SDS011;21729;58.392;15.656;2024-02-26T05:20:10;11.23;;;8.10;;
35606;SDS011;21729;58.392;15.656;2024-02-26T05:22:37;10.85;;;7.90;;
35606;SDS011;21729;58.392;15.656;2024-02-26T05:25:04;10.55;;;7.63;;
35606;SDS011;21729;58.392;15.656;2024-02-26T05:27:31;10.23;;;7.65;;
35606;SDS011;21729;58.392;15.656;2024-02-26T05:30:00;10.60;;;7.95;;
35606;SDS011;21729;58.392;15.656;2024-02-26T05:32:28;11.70;;;8.13;;
35606;SDS011;21729;58.392;15.656;2024-02-26T05:34:55;11.90;;;8.13;;
35606;SDS011;21729;58.392;15.656;2024-02-26T05:37:22;10.95;;;8.02;;
35606;SDS011;21729;58.392;15.656;2024-02-26T05:39:49;11.63;;;8.20;;
35606;SDS011;21729;58.392;15.656;2024-02-26T05:42:17;12.65;;;8.75;;
35606;SDS011;21729;58.392;15.656;2024-02-26T05:44:44;12.43;;;9.30;;
35606;SDS011;21729;58.392;15.656;2024-02-26T05:47:13;11.52;;;8.57;;
35606;SDS011;21729;58.392;15.656;2024-02-26T05:49:40;12.07;;;8.95;;
35606;SDS011;21729;58.392;15.656;2024-02-26T05:52:08;10.93;;;8.40;;
35606;SDS011;21729;58.392;15.656;2024-02-26T05:54:35;11.63;;;8.88;;
35606;SDS011;21729;58.392;15.656;2024-02-26T05:57:02;11.20;;;8.82;;
35606;SDS011;21729;58.392;15.656;2024-02-26T05:59:29;11.95;;;9.15;;
35606;SDS011;21729;58.392;15.656;2024-02-26T06:01:56;11.00;;;8.13;;
35606;SDS011;21729;58.392;15.656;2024-02-26T06:04:24;10.52;;;8.40;;
35606;SDS011;21729;58.392;15.656;2024-02-26T06:06:51;12.48;;;8.35;;
35606;SDS011;21729;58.392;15.656;2024-02-26T06:09:18;10.90;;;8.57;;
35606;SDS011;21729;58.392;15.656;2024-02-26T06:11:45;11.48;;;8.00;;
35606;SDS011;21729;58.392;15.656;2024-02-26T06:14:12;10.43;;;8.18;;
35606;SDS011;21729;58.392;15.656;2024-02-26T06:16:43;9.48;;;7.40;;
35606;SDS011;21729;58.392;15.656;2024-02-26T06:19:10;9.75;;;7.82;;
35606;SDS011;21729;58.392;15.656;2024-02-26T06:21:38;10.00;;;7.70;;
35606;SDS011;21729;58.392;15.656;2024-02-26T06:24:05;10.27;;;7.50;;
35606;SDS011;21729;58.392;15.656;2024-02-26T06:26:32;9.80;;;7.30;;
35606;SDS011;21729;58.392;15.656;2024-02-26T06:28:59;10.50;;;7.10;;
35606;SDS011;21729;58.392;15.656;2024-02-26T06:31:26;9.90;;;7.10;;
35606;SDS011;21729;58.392;15.656;2024-02-26T06:33:54;10.25;;;7.38;;
35606;SDS011;21729;58.392;15.656;2024-02-26T06:36:21;8.82;;;6.93;;
35606;SDS011;21729;58.392;15.656;2024-02-26T06:38:50;8.83;;;7.10;;
35606;SDS011;21729;58.392;15.656;2024-02-26T06:41:19;9.77;;;6.95;;
35606;SDS011;21729;58.392;15.656;2024-02-26T06:43:46;7.87;;;6.50;;
35606;SDS011;21729;58.392;15.656;2024-02-26T06:46:13;8.30;;;6.60;;
35606;SDS011;21729;58.392;15.656;2024-02-26T06:48:40;8.15;;;6.45;;
35606;SDS011;21729;58.392;15.656;2024-02-26T06:51:07;7.75;;;6.32;;
35606;SDS011;21729;58.392;15.656;2024-02-26T06:53:34;8.32;;;6.45;;
35606;SDS011;21729;58.392;15.656;2024-02-26T06:56:03;7.77;;;6.20;;
35606;SDS011;21729;58.392;15.656;2024-02-26T06:58:31;7.72;;;6.15;;
35606;SDS011;21729;58.392;15.656;2024-02-26T07:00:58;6.45;;;5.70;;
35606;SDS011;21729;58.392;15.656;2024-02-26T07:03:25;7.97;;;6.13;;
35606;SDS011;21729;58.392;15.656;2024-02-26T07:05:52;7.72;;;6.10;;
35606;SDS011;21729;58.392;15.656;2024-02-26T07:08:20;7.35;;;5.93;;
35606;SDS011;21729;58.392;15.656;2024-02-26T07:10:47;7.67;;;5.93;;
35606;SDS011;21729;58.392;15.656;2024-02-26T07:13:15;7.00;;;5.80;;
35606;SDS011;21729;58.392;15.656;2024-02-26T07:15:42;8.48;;;5.82;;
35606;SDS011;21729;58.392;15.656;2024-02-26T07:18:09;7.05;;;5.85;;
35606;SDS011;21729;58.392;15.656;2024-02-26T07:20:36;8.80;;;5.95;;
35606;SDS011;21729;58.392;15.656;2024-02-26T07:23:03;6.50;;;5.50;;
35606;SDS011;21729;58.392;15.656;2024-02-26T07:25:31;6.63;;;5.35;;
35606;SDS011;21729;58.392;15.656;2024-02-26T07:27:58;6.85;;;5.07;;
35606;SDS011;21729;58.392;15.656;2024-02-26T07:30:27;6.20;;;5.43;;
35606;SDS011;21729;58.392;15.656;2024-02-26T07:32:54;7.30;;;5.40;;
35606;SDS011;21729;58.392;15.656;2024-02-26T07:35:21;6.35;;;5.68;;
35606;SDS011;21729;58.392;15.656;2024-02-26T07:37:48;5.75;;;5.15;;
35606;SDS011;21729;58.392;15.656;2024-02-26T07:40:16;5.13;;;4.50;;
35606;SDS011;21729;58.392;15.656;2024-02-26T07:42:43;6.32;;;5.35;;
35606;SDS011;21729;58.392;15.656;2024-02-26T07:45:10;5.47;;;4.70;;
35606;SDS011;21729;58.392;15.656;2024-02-26T07:47:39;5.05;;;4.55;;
35606;SDS011;21729;58.392;15.656;2024-02-26T07:50:07;4.72;;;4.20;;
35606;SDS011;21729;58.392;15.656;2024-02-26T07:52:34;5.27;;;4.20;;
35606;SDS011;21729;58.392;15.656;2024-02-26T07:55:01;4.78;;;4.35;;
35606;SDS011;21729;58.392;15.656;2024-02-26T07:57:28;5.00;;;4.40;;
35606;SDS011;21729;58.392;15.656;2024-02-26T07:59:55;4.53;;;4.13;;
35606;SDS011;21729;58.392;15.656;2024-02-26T08:02:22;5.18;;;4.38;;
35606;SDS011;21729;58.392;15.656;2024-02-26T08:04:51;4.90;;;4.10;;
35606;SDS011;21729;58.392;15.656;2024-02-26T08:07:18;5.30;;;4.65;;
35606;SDS011;21729;58.392;15.656;2024-02-26T08:09:46;5.35;;;4.65;;
35606;SDS011;21729;58.392;15.656;2024-02-26T08:12:13;5.45;;;4.53;;
35606;SDS011;21729;58.392;15.656;2024-02-26T08:14:40;5.10;;;4.60;;
35606;SDS011;21729;58.392;15.656;2024-02-26T08:17:08;5.88;;;4.82;;
35606;SDS011;21729;58.392;15.656;2024-02-26T08:19:35;5.38;;;4.60;;
35606;SDS011;21729;58.392;15.656;2024-02-26T08:22:03;6.18;;;5.28;;
35606;SDS011;21729;58.392;15.656;2024-02-26T08:24:30;6.57;;;5.30;;
35606;SDS011;21729;58.392;15.656;2024-02-26T08:26:58;6.05;;;5.13;;
35606;SDS011;21729;58.392;15.656;2024-02-26T08:29:25;6.40;;;5.68;;
35606;SDS011;21729;58.392;15.656;2024-02-26T08:31:52;6.60;;;5.60;;
35606;SDS011;21729;58.392;15.656;2024-02-26T08:34:18;6.82;;;5.82;;
35606;SDS011;21729;58.392;15.656;2024-02-26T08:36:46;7.07;;;5.67;;
35606;SDS011;21729;58.392;15.656;2024-02-26T08:39:15;6.50;;;5.70;;
35606;SDS011;21729;58.392;15.656;2024-02-26T08:41:42;6.63;;;5.93;;
35606;SDS011;21729;58.392;15.656;2024-02-26T08:44:09;6.40;;;5.80;;
35606;SDS011;21729;58.392;15.656;2024-02-26T08:46:37;5.93;;;5.30;;
35606;SDS011;21729;58.392;15.656;2024-02-26T08:49:04;6.57;;;5.57;;
35606;SDS011;21729;58.392;15.656;2024-02-26T08:51:31;7.10;;;5.45;;
35606;SDS011;21729;58.392;15.656;2024-02-26T08:53:58;5.95;;;5.10;;
35606;SDS011;21729;58.392;15.656;2024-02-26T08:56:26;5.63;;;5.00;;
35606;SDS011;21729;58.392;15.656;2024-02-26T08:58:53;5.60;;;5.00;;
35606;SDS011;21729;58.392;15.656;2024-02-26T09:01:22;5.38;;;4.88;;
35606;SDS011;21729;58.392;15.656;2024-02-26T09:03:49;5.50;;;5.00;;
35606;SDS011;21729;58.392;15.656;2024-02-26T09:06:16;5.32;;;4.53;;
35606;SDS011;21729;58.392;15.656;2024-02-26T09:08:43;5.88;;;5.22;;
35606;SDS011;21729;58.392;15.656;2024-02-26T09:11:10;5.35;;;4.85;;
35606;SDS011;21729;58.392;15.656;2024-02-26T09:13:39;5.65;;;5.00;;
35606;SDS011;21729;58.392;15.656;2024-02-26T09:16:06;5.57;;;4.88;;
35606;SDS011;21729;58.392;15.656;2024-02-26T09:18:33;5.70;;;5.20;;
35606;SDS011;21729;58.392;15.656;2024-02-26T09:21:03;5.85;;;5.10;;
35606;SDS011;21729;58.392;15.656;2024-02-26T09:23:30;6.00;;;5.40;;
35606;SDS011;21729;58.392;15.656;2024-02-26T09:25:58;6.63;;;5.95;;
35606;SDS011;21729;58.392;15.656;2024-02-26T09:28:25;6.22;;;5.63;;
35606;SDS011;21729;58.392;15.656;2024-02-26T09:30:53;6.18;;;5.57;;
35606;SDS011;21729;58.392;15.656;2024-02-26T09:33:20;6.67;;;5.70;;
35606;SDS011;21729;58.392;15.656;2024-02-26T09:35:47;8.75;;;8.05;;
35606;SDS011;21729;58.392;15.656;2024-02-26T09:38:14;6.20;;;5.60;;
35606;SDS011;21729;58.392;15.656;2024-02-26T09:40:41;8.90;;;8.20;;
35606;SDS011;21729;58.392;15.656;2024-02-26T09:43:08;9.20;;;8.50;;
35606;SDS011;21729;58.392;15.656;2024-02-26T09:45:40;9.57;;;8.77;;
35606;SDS011;21729;58.392;15.656;2024-02-26T09:48:09;9.70;;;8.90;;
35606;SDS011;21729;58.392;15.656;2024-02-26T09:50:38;10.48;;;9.60;;
35606;SDS011;21729;58.392;15.656;2024-02-26T09:53:07;10.43;;;9.63;;
35606;SDS011;21729;58.392;15.656;2024-02-26T09:55:36;7.07;;;6.38;;
35606;SDS011;21729;58.392;15.656;2024-02-26T09:58:03;7.40;;;6.70;;
35606;SDS011;21729;58.392;15.656;2024-02-26T10:00:32;7.97;;;7.18;;
35606;SDS011;21729;58.392;15.656;2024-02-26T10:03:04;7.60;;;6.90;;
35606;SDS011;21729;58.392;15.656;2024-02-26T10:05:34;7.05;;;6.32;;
35606;SDS011;21729;58.392;15.656;2024-02-26T10:08:03;7.20;;;6.43;;
35606;SDS011;21729;58.392;15.656;2024-02-26T10:10:31;7.00;;;6.30;;
35606;SDS011;21729;58.392;15.656;2024-02-26T10:12:59;7.07;;;6.38;;
35606;SDS011;21729;58.392;15.656;2024-02-26T10:15:27;7.00;;;6.30;;
35606;SDS011;21729;58.392;15.656;2024-02-26T10:17:54;7.07;;;6.38;;
35606;SDS011;21729;58.392;15.656;2024-02-26T10:20:21;6.65;;;5.95;;
35606;SDS011;21729;58.392;15.656;2024-02-26T10:22:50;7.07;;;6.38;;
35606;SDS011;21729;58.392;15.656;2024-02-26T10:25:17;6.80;;;6.10;;
35606;SDS011;21729;58.392;15.656;2024-02-26T10:27:45;6.82;;;6.13;;
35606;SDS011;21729;58.392;15.656;2024-02-26T10:30:15;6.55;;;5.95;;
35606;SDS011;21729;58.392;15.656;2024-02-26T10:32:44;8.25;;;7.38;;
35606;SDS011;21729;58.392;15.656;2024-02-26T10:35:12;7.05;;;6.35;;
35606;SDS011;21729;58.392;15.656;2024-02-26T10:37:39;7.40;;;6.70;;
35606;SDS011;21729;58.392;15.656;2024-02-26T10:40:10;7.70;;;6.77;;
35606;SDS011;21729;58.392;15.656;2024-02-26T10:42:37;7.90;;;7.10;;
35606;SDS011;21729;58.392;15.656;2024-02-26T10:45:05;8.05;;;6.82;;
35606;SDS011;21729;58.392;15.656;2024-02-26T10:47:34;7.10;;;6.38;;
35606;SDS011;21729;58.392;15.656;2024-02-26T10:50:02;7.75;;;6.97;;
35606;SDS011;21729;58.392;15.656;2024-02-26T10:52:31;7.82;;;7.03;;
35606;SDS011;21729;58.392;15.656;2024-02-26T10:55:00;7.20;;;6.50;;
35606;SDS011;21729;58.392;15.656;2024-02-26T10:57:31;7.25;;;6.55;;
35606;SDS011;21729;58.392;15.656;2024-02-26T11:00:02;6.75;;;6.05;;
35606;SDS011;21729;58.392;15.656;2024-02-26T11:02:31;7.00;;;6.30;;
35606;SDS011;21729;58.392;15.656;2024-02-26T11:05:00;6.72;;;6.07;;
35606;SDS011;21729;58.392;15.656;2024-02-26T11:07:30;6.00;;;5.40;;
35606;SDS011;21729;58.392;15.656;2024-02-26T11:09:58;6.43;;;5.82;;
35606;SDS011;21729;58.392;15.656;2024-02-26T11:12:27;6.20;;;5.60;;
35606;SDS011;21729;58.392;15.656;2024-02-26T11:14:56;6.40;;;5.80;;
35606;SDS011;21729;58.392;15.656;2024-02-26T11:17:25;6.80;;;6.10;;
35606;SDS011;21729;58.392;15.656;2024-02-26T11:19:56;6.45;;;5.82;;
35606;SDS011;21729;58.392;15.656;2024-02-26T11:22:24;6.35;;;5.75;;
35606;SDS011;21729;58.392;15.656;2024-02-26T11:24:52;5.93;;;5.40;;
35606;SDS011;21729;58.392;15.656;2024-02-26T11:27:23;6.40;;;5.80;;
35606;SDS011;21729;58.392;15.656;2024-02-26T11:29:56;6.63;;;5.93;;
35606;SDS011;21729;58.392;15.656;2024-02-26T11:32:26;6.50;;;5.85;;
35606;SDS011;21729;58.392;15.656;2024-02-26T11:34:55;5.90;;;5.40;;
35606;SDS011;21729;58.392;15.656;2024-02-26T11:37:23;6.63;;;5.78;;
35606;SDS011;21729;58.392;15.656;2024-02-26T11:39:51;6.30;;;5.70;;
35606;SDS011;21729;58.392;15.656;2024-02-26T11:42:22;5.80;;;5.20;;
35606;SDS011;21729;58.392;15.656;2024-02-26T11:44:51;8.50;;;7.90;;
35606;SDS011;21729;58.392;15.656;2024-02-26T11:47:20;7.13;;;6.47;;
35606;SDS011;21729;58.392;15.656;2024-02-26T11:49:48;6.85;;;5.50;;
35606;SDS011;21729;58.392;15.656;2024-02-26T11:52:16;6.28;;;5.40;;
35606;SDS011;21729;58.392;15.656;2024-02-26T11:54:43;6.37;;;5.77;;
35606;SDS011;21729;58.392;15.656;2024-02-26T11:57:21;5.97;;;5.40;;
35606;SDS011;21729;58.392;15.656;2024-02-26T11:59:52;5.90;;;5.30;;
35606;SDS011;21729;58.392;15.656;2024-02-26T12:02:41;6.20;;;5.60;;
35606;SDS011;21729;58.392;15.656;2024-02-26T12:05:11;5.97;;;5.38;;
35606;SDS011;21729;58.392;15.656;2024-02-26T12:07:42;5.82;;;5.22;;
35606;SDS011;21729;58.392;15.656;2024-02-26T12:10:21;6.30;;;5.70;;
35606;SDS011;21729;58.392;15.656;2024-02-26T12:13:00;6.03;;;5.43;;
35606;SDS011;21729;58.392;15.656;2024-02-26T12:15:39;5.97;;;5.40;;
35606;SDS011;21729;58.392;15.656;2024-02-26T12:18:10;5.70;;;5.20;;
35606;SDS011;21729;58.392;15.656;2024-02-26T12:20:42;5.47;;;4.82;;
35606;SDS011;21729;58.392;15.656;2024-02-26T12:23:10;5.85;;;5.22;;
35606;SDS011;21729;58.392;15.656;2024-02-26T12:25:43;5.90;;;5.30;;
35606;SDS011;21729;58.392;15.656;2024-02-26T12:28:13;7.43;;;6.30;;
35606;SDS011;21729;58.392;15.656;2024-02-26T12:30:40;8.73;;;7.82;;
35606;SDS011;21729;58.392;15.656;2024-02-26T12:33:07;8.00;;;7.20;;
35606;SDS011;21729;58.392;15.656;2024-02-26T12:35:36;8.77;;;7.22;;
35606;SDS011;21729;58.392;15.656;2024-02-26T12:38:04;8.40;;;7.50;;
35606;SDS011;21729;58.392;15.656;2024-02-26T12:40:31;8.77;;;7.88;;
35606;SDS011;21729;58.392;15.656;2024-02-26T12:42:58;9.30;;;8.30;;
35606;SDS011;21729;58.392;15.656;2024-02-26T12:45:25;10.27;;;8.35;;
35606;SDS011;21729;58.392;15.656;2024-02-26T12:47:53;11.00;;;9.93;;
35606;SDS011;21729;58.392;15.656;2024-02-26T12:50:22;10.47;;;9.23;;
35606;SDS011;21729;58.392;15.656;2024-02-26T12:52:49;10.75;;;8.63;;
35606;SDS011;21729;58.392;15.656;2024-02-26T12:55:18;10.95;;;9.35;;
35606;SDS011;21729;58.392;15.656;2024-02-26T12:57:46;11.13;;;9.40;;
35606;SDS011;21729;58.392;15.656;2024-02-26T13:00:16;12.38;;;9.60;;
35606;SDS011;21729;58.392;15.656;2024-02-26T13:02:45;13.15;;;10.65;;
35606;SDS011;21729;58.392;15.656;2024-02-26T13:05:13;13.70;;;11.55;;
35606;SDS011;21729;58.392;15.656;2024-02-26T13:07:43;15.27;;;12.40;;
35606;SDS011;21729;58.392;15.656;2024-02-26T13:10:12;18.75;;;14.13;;
35606;SDS011;21729;58.392;15.656;2024-02-26T13:12:43;22.27;;;16.60;;
35606;SDS011;21729;58.392;15.656;2024-02-26T13:15:13;22.85;;;16.65;;
35606;SDS011;21729;58.392;15.656;2024-02-26T13:17:42;24.13;;;17.75;;
35606;SDS011;21729;58.392;15.656;2024-02-26T13:20:09;26.58;;;18.70;;
35606;SDS011;21729;58.392;15.656;2024-02-26T13:22:36;25.80;;;18.73;;
35606;SDS011;21729;58.392;15.656;2024-02-26T13:25:05;24.45;;;17.67;;
35606;SDS011;21729;58.392;15.656;2024-02-26T13:27:34;22.15;;;15.75;;
35606;SDS011;21729;58.392;15.656;2024-02-26T13:30:04;21.67;;;16.05;;
35606;SDS011;21729;58.392;15.656;2024-02-26T13:32:35;18.65;;;14.45;;
35606;SDS011;21729;58.392;15.656;2024-02-26T13:35:04;19.57;;;14.83;;
35606;SDS011;21729;58.392;15.656;2024-02-26T13:37:33;18.73;;;14.25;;
35606;SDS011;21729;58.392;15.656;2024-02-26T13:40:00;20.40;;;14.60;;
35606;SDS011;21729;58.392;15.656;2024-02-26T13:42:32;18.42;;;14.60;;
35606;SDS011;21729;58.392;15.656;2024-02-26T13:44:59;20.38;;;15.70;;
35606;SDS011;21729;58.392;15.656;2024-02-26T13:47:26;20.67;;;15.47;;
35606;SDS011;21729;58.392;15.656;2024-02-26T13:49:53;19.77;;;15.47;;
35606;SDS011;21729;58.392;15.656;2024-02-26T13:52:20;20.50;;;15.57;;
35606;SDS011;21729;58.392;15.656;2024-02-26T13:54:48;20.75;;;15.43;;
35606;SDS011;21729;58.392;15.656;2024-02-26T13:57:16;20.10;;;15.10;;
35606;SDS011;21729;58.392;15.656;2024-02-26T13:59:45;20.15;;;15.55;;
35606;SDS011;21729;58.392;15.656;2024-02-26T14:02:12;19.45;;;15.32;;
35606;SDS011;21729;58.392;15.656;2024-02-26T14:04:39;18.80;;;14.40;;
35606;SDS011;21729;58.392;15.656;2024-02-26T14:07:07;17.87;;;14.00;;
35606;SDS011;21729;58.392;15.656;2024-02-26T14:09:34;16.85;;;13.65;;
35606;SDS011;21729;58.392;15.656;2024-02-26T14:12:01;19.00;;;14.25;;
35606;SDS011;21729;58.392;15.656;2024-02-26T14:14:29;19.43;;;14.57;;
35606;SDS011;21729;58.392;15.656;2024-02-26T14:17:01;19.02;;;14.20;;
35606;SDS011;21729;58.392;15.656;2024-02-26T14:19:29;18.40;;;14.20;;
35606;SDS011;21729;58.392;15.656;2024-02-26T14:21:56;17.55;;;13.80;;
35606;SDS011;21729;58.392;15.656;2024-02-26T14:24:23;17.13;;;13.57;;
35606;SDS011;21729;58.392;15.656;2024-02-26T14:26:50;17.27;;;13.68;;
35606;SDS011;21729;58.392;15.656;2024-02-26T14:29:17;15.25;;;12.80;;